sensor_id;sensor_type;location;lat;lon;timestamp;temperature;humidity
81337;DHT22;70799;48.000;10.584;2023-07-30T00:01:55;19.80;78.70
81337;DHT22;70799;48.000;10.584;2023-07-30T00:04:29;19.70;79.00
81337;DHT22;70799;48.000;10.584;2023-07-30T00:07:02;19.80;78.90
81337;DHT22;70799;48.000;10.584;2023-07-30T00:09:37;19.80;79.20
81337;DHT22;70799;48.000;10.584;2023-07-30T00:12:10;19.80;78.90
81337;DHT22;70799;48.000;10.584;2023-07-30T00:14:43;19.80;79.10
81337;DHT22;70799;48.000;10.584;2023-07-30T00:17:16;19.80;78.90
81337;DHT22;70799;48.000;10.584;2023-07-30T00:19:49;19.80;79.10
81337;DHT22;70799;48.000;10.584;2023-07-30T00:22:22;19.80;78.90
81337;DHT22;70799;48.000;10.584;2023-07-30T00:24:56;19.80;79.10
81337;DHT22;70799;48.000;10.584;2023-07-30T00:27:29;19.80;79.00
81337;DHT22;70799;48.000;10.584;2023-07-30T00:30:02;19.80;78.90
81337;DHT22;70799;48.000;10.584;2023-07-30T00:32:36;19.80;78.90
81337;DHT22;70799;48.000;10.584;2023-07-30T00:35:16;19.90;78.90
81337;DHT22;70799;48.000;10.584;2023-07-30T00:37:49;19.90;79.00
81337;DHT22;70799;48.000;10.584;2023-07-30T00:40:22;19.90;78.70
81337;DHT22;70799;48.000;10.584;2023-07-30T00:42:55;19.90;78.60
81337;DHT22;70799;48.000;10.584;2023-07-30T00:45:29;19.90;78.40
81337;DHT22;70799;48.000;10.584;2023-07-30T00:48:02;20.00;78.80
81337;DHT22;70799;48.000;10.584;2023-07-30T00:50:35;20.10;78.80
81337;DHT22;70799;48.000;10.584;2023-07-30T00:53:09;20.00;78.90
81337;DHT22;70799;48.000;10.584;2023-07-30T00:55:45;20.00;78.70
81337;DHT22;70799;48.000;10.584;2023-07-30T00:58:20;20.00;78.50
81337;DHT22;70799;48.000;10.584;2023-07-30T01:00:54;20.10;78.80
81337;DHT22;70799;48.000;10.584;2023-07-30T01:03:27;20.00;78.70
81337;DHT22;70799;48.000;10.584;2023-07-30T01:06:01;20.10;78.80
81337;DHT22;70799;48.000;10.584;2023-07-30T01:08:34;20.10;78.40
81337;DHT22;70799;48.000;10.584;2023-07-30T01:11:08;20.10;78.20
81337;DHT22;70799;48.000;10.584;2023-07-30T01:13:42;20.10;78.20
81337;DHT22;70799;48.000;10.584;2023-07-30T01:16:19;20.10;78.30
81337;DHT22;70799;48.000;10.584;2023-07-30T01:18:52;20.10;78.10
81337;DHT22;70799;48.000;10.584;2023-07-30T01:21:26;20.10;78.10
81337;DHT22;70799;48.000;10.584;2023-07-30T01:23:59;20.10;78.20
81337;DHT22;70799;48.000;10.584;2023-07-30T01:26:43;20.10;78.20
81337;DHT22;70799;48.000;10.584;2023-07-30T01:29:45;20.00;78.50
81337;DHT22;70799;48.000;10.584;2023-07-30T01:32:26;20.00;78.20
81337;DHT22;70799;48.000;10.584;2023-07-30T01:35:01;20.00;78.20
81337;DHT22;70799;48.000;10.584;2023-07-30T01:37:35;20.00;78.50
81337;DHT22;70799;48.000;10.584;2023-07-30T01:40:09;20.00;78.60
81337;DHT22;70799;48.000;10.584;2023-07-30T01:42:43;20.00;78.70
81337;DHT22;70799;48.000;10.584;2023-07-30T01:45:16;20.00;78.80
81337;DHT22;70799;48.000;10.584;2023-07-30T01:47:50;19.90;79.60
81337;DHT22;70799;48.000;10.584;2023-07-30T01:50:23;19.90;79.40
81337;DHT22;70799;48.000;10.584;2023-07-30T01:52:56;19.90;79.50
81337;DHT22;70799;48.000;10.584;2023-07-30T01:55:29;19.90;79.80
81337;DHT22;70799;48.000;10.584;2023-07-30T01:58:03;19.90;80.30
81337;DHT22;70799;48.000;10.584;2023-07-30T02:00:36;19.80;80.40
81337;DHT22;70799;48.000;10.584;2023-07-30T02:03:09;19.80;80.60
81337;DHT22;70799;48.000;10.584;2023-07-30T02:05:42;19.80;80.70
81337;DHT22;70799;48.000;10.584;2023-07-30T02:08:23;19.70;80.70
81337;DHT22;70799;48.000;10.584;2023-07-30T02:11:16;19.70;80.70
81337;DHT22;70799;48.000;10.584;2023-07-30T02:14:23;19.60;80.80
81337;DHT22;70799;48.000;10.584;2023-07-30T02:17:12;19.60;81.00
81337;DHT22;70799;48.000;10.584;2023-07-30T02:20:12;19.60;81.00
81337;DHT22;70799;48.000;10.584;2023-07-30T02:23:08;19.50;80.90
81337;DHT22;70799;48.000;10.584;2023-07-30T02:26:04;19.50;81.00
81337;DHT22;70799;48.000;10.584;2023-07-30T02:28:37;19.50;80.80
81337;DHT22;70799;48.000;10.584;2023-07-30T02:31:10;19.50;80.90
81337;DHT22;70799;48.000;10.584;2023-07-30T02:33:43;19.50;80.90
81337;DHT22;70799;48.000;10.584;2023-07-30T02:36:16;19.40;81.00
81337;DHT22;70799;48.000;10.584;2023-07-30T02:38:50;19.40;81.10
81337;DHT22;70799;48.000;10.584;2023-07-30T02:41:23;19.40;80.80
81337;DHT22;70799;48.000;10.584;2023-07-30T02:43:56;19.50;81.10
81337;DHT22;70799;48.000;10.584;2023-07-30T02:46:30;19.40;81.00
81337;DHT22;70799;48.000;10.584;2023-07-30T02:49:03;19.30;81.00
81337;DHT22;70799;48.000;10.584;2023-07-30T02:51:36;19.40;80.90
81337;DHT22;70799;48.000;10.584;2023-07-30T02:54:10;19.40;80.80
81337;DHT22;70799;48.000;10.584;2023-07-30T02:56:43;19.40;81.00
81337;DHT22;70799;48.000;10.584;2023-07-30T02:59:17;19.40;81.00
81337;DHT22;70799;48.000;10.584;2023-07-30T03:01:50;19.30;81.10
81337;DHT22;70799;48.000;10.584;2023-07-30T03:04:23;19.40;80.90
81337;DHT22;70799;48.000;10.584;2023-07-30T03:06:57;19.40;81.00
81337;DHT22;70799;48.000;10.584;2023-07-30T03:09:30;19.30;80.70
81337;DHT22;70799;48.000;10.584;2023-07-30T03:12:04;19.30;80.80
81337;DHT22;70799;48.000;10.584;2023-07-30T03:14:37;19.30;80.80
81337;DHT22;70799;48.000;10.584;2023-07-30T03:17:11;19.30;80.70
81337;DHT22;70799;48.000;10.584;2023-07-30T03:19:44;19.40;80.80
81337;DHT22;70799;48.000;10.584;2023-07-30T03:22:17;19.30;80.80
81337;DHT22;70799;48.000;10.584;2023-07-30T03:24:50;19.40;80.70
81337;DHT22;70799;48.000;10.584;2023-07-30T03:27:24;19.40;80.60
81337;DHT22;70799;48.000;10.584;2023-07-30T03:29:58;19.50;80.50
81337;DHT22;70799;48.000;10.584;2023-07-30T03:32:32;19.40;80.40
81337;DHT22;70799;48.000;10.584;2023-07-30T03:35:06;19.40;80.60
81337;DHT22;70799;48.000;10.584;2023-07-30T03:37:39;19.40;80.80
81337;DHT22;70799;48.000;10.584;2023-07-30T03:40:12;19.30;80.60
81337;DHT22;70799;48.000;10.584;2023-07-30T03:42:46;19.30;80.80
81337;DHT22;70799;48.000;10.584;2023-07-30T03:45:19;19.20;80.90
81337;DHT22;70799;48.000;10.584;2023-07-30T03:47:53;19.30;80.80
81337;DHT22;70799;48.000;10.584;2023-07-30T03:50:34;19.30;81.00
81337;DHT22;70799;48.000;10.584;2023-07-30T03:53:09;19.30;80.60
81337;DHT22;70799;48.000;10.584;2023-07-30T03:55:49;19.20;80.70
81337;DHT22;70799;48.000;10.584;2023-07-30T03:58:25;19.30;80.90
81337;DHT22;70799;48.000;10.584;2023-07-30T04:00:58;19.30;80.80
81337;DHT22;70799;48.000;10.584;2023-07-30T04:03:39;19.30;80.80
81337;DHT22;70799;48.000;10.584;2023-07-30T04:06:13;19.20;81.00
81337;DHT22;70799;48.000;10.584;2023-07-30T04:08:50;19.30;80.80
81337;DHT22;70799;48.000;10.584;2023-07-30T04:11:27;19.20;80.90
81337;DHT22;70799;48.000;10.584;2023-07-30T04:14:04;19.30;80.90
81337;DHT22;70799;48.000;10.584;2023-07-30T04:16:40;19.30;81.00
81337;DHT22;70799;48.000;10.584;2023-07-30T04:19:18;19.30;81.10
81337;DHT22;70799;48.000;10.584;2023-07-30T04:21:55;19.30;80.90
81337;DHT22;70799;48.000;10.584;2023-07-30T04:24:29;19.30;80.80
81337;DHT22;70799;48.000;10.584;2023-07-30T04:27:03;19.30;80.90
81337;DHT22;70799;48.000;10.584;2023-07-30T04:29:39;19.40;80.90
81337;DHT22;70799;48.000;10.584;2023-07-30T04:32:15;19.50;80.60
81337;DHT22;70799;48.000;10.584;2023-07-30T04:34:49;19.40;80.50
81337;DHT22;70799;48.000;10.584;2023-07-30T04:37:24;19.50;80.60
81337;DHT22;70799;48.000;10.584;2023-07-30T04:39:58;19.60;80.50
81337;DHT22;70799;48.000;10.584;2023-07-30T04:42:39;19.60;80.60
81337;DHT22;70799;48.000;10.584;2023-07-30T04:45:14;19.60;80.60
81337;DHT22;70799;48.000;10.584;2023-07-30T04:47:52;19.60;80.30
81337;DHT22;70799;48.000;10.584;2023-07-30T04:50:26;19.70;80.30
81337;DHT22;70799;48.000;10.584;2023-07-30T04:52:59;19.70;80.30
81337;DHT22;70799;48.000;10.584;2023-07-30T04:55:34;19.80;80.30
81337;DHT22;70799;48.000;10.584;2023-07-30T04:58:09;19.80;80.10
81337;DHT22;70799;48.000;10.584;2023-07-30T05:00:43;19.70;80.20
81337;DHT22;70799;48.000;10.584;2023-07-30T05:03:20;19.80;80.20
81337;DHT22;70799;48.000;10.584;2023-07-30T05:05:54;19.80;80.30
81337;DHT22;70799;48.000;10.584;2023-07-30T05:08:28;19.90;80.20
81337;DHT22;70799;48.000;10.584;2023-07-30T05:11:05;19.80;80.00
81337;DHT22;70799;48.000;10.584;2023-07-30T05:13:39;19.90;80.10
81337;DHT22;70799;48.000;10.584;2023-07-30T05:16:21;19.90;80.10
81337;DHT22;70799;48.000;10.584;2023-07-30T05:18:56;20.00;80.00
81337;DHT22;70799;48.000;10.584;2023-07-30T05:21:30;20.10;80.30
81337;DHT22;70799;48.000;10.584;2023-07-30T05:24:04;20.00;80.10
81337;DHT22;70799;48.000;10.584;2023-07-30T05:26:40;20.10;80.40
81337;DHT22;70799;48.000;10.584;2023-07-30T05:29:13;20.10;80.10
81337;DHT22;70799;48.000;10.584;2023-07-30T05:31:47;20.30;80.20
81337;DHT22;70799;48.000;10.584;2023-07-30T05:34:20;20.30;80.10
81337;DHT22;70799;48.000;10.584;2023-07-30T05:36:59;20.40;79.90
81337;DHT22;70799;48.000;10.584;2023-07-30T05:39:33;20.60;79.80
81337;DHT22;70799;48.000;10.584;2023-07-30T05:42:08;20.80;79.50
81337;DHT22;70799;48.000;10.584;2023-07-30T05:44:41;21.00;77.90
81337;DHT22;70799;48.000;10.584;2023-07-30T05:47:15;21.20;77.20
81337;DHT22;70799;48.000;10.584;2023-07-30T05:49:52;21.30;77.20
81337;DHT22;70799;48.000;10.584;2023-07-30T05:52:25;21.40;76.70
81337;DHT22;70799;48.000;10.584;2023-07-30T05:54:59;21.50;76.60
81337;DHT22;70799;48.000;10.584;2023-07-30T05:57:34;21.50;76.10
81337;DHT22;70799;48.000;10.584;2023-07-30T06:00:07;21.50;76.20
81337;DHT22;70799;48.000;10.584;2023-07-30T06:02:45;21.60;76.30
81337;DHT22;70799;48.000;10.584;2023-07-30T06:05:20;21.50;76.10
81337;DHT22;70799;48.000;10.584;2023-07-30T06:07:58;21.60;76.00
81337;DHT22;70799;48.000;10.584;2023-07-30T06:10:46;21.70;76.30
81337;DHT22;70799;48.000;10.584;2023-07-30T06:13:19;21.70;76.00
81337;DHT22;70799;48.000;10.584;2023-07-30T06:15:53;21.70;75.40
81337;DHT22;70799;48.000;10.584;2023-07-30T06:18:34;21.70;75.30
81337;DHT22;70799;48.000;10.584;2023-07-30T06:21:13;21.70;75.90
81337;DHT22;70799;48.000;10.584;2023-07-30T06:23:47;21.80;75.70
81337;DHT22;70799;48.000;10.584;2023-07-30T06:26:20;21.80;75.60
81337;DHT22;70799;48.000;10.584;2023-07-30T06:28:57;21.80;75.00
81337;DHT22;70799;48.000;10.584;2023-07-30T06:31:32;21.80;75.40
81337;DHT22;70799;48.000;10.584;2023-07-30T06:34:06;21.90;75.10
81337;DHT22;70799;48.000;10.584;2023-07-30T06:36:40;21.90;75.60
81337;DHT22;70799;48.000;10.584;2023-07-30T06:39:14;21.90;75.50
81337;DHT22;70799;48.000;10.584;2023-07-30T06:41:50;22.10;75.70
81337;DHT22;70799;48.000;10.584;2023-07-30T06:44:26;22.10;75.00
81337;DHT22;70799;48.000;10.584;2023-07-30T06:47:03;22.10;74.60
81337;DHT22;70799;48.000;10.584;2023-07-30T06:49:37;22.10;74.70
81337;DHT22;70799;48.000;10.584;2023-07-30T06:52:21;22.20;74.90
81337;DHT22;70799;48.000;10.584;2023-07-30T06:55:01;22.20;74.80
81337;DHT22;70799;48.000;10.584;2023-07-30T06:57:40;22.30;74.20
81337;DHT22;70799;48.000;10.584;2023-07-30T07:00:16;22.40;74.40
81337;DHT22;70799;48.000;10.584;2023-07-30T07:02:57;22.60;73.40
81337;DHT22;70799;48.000;10.584;2023-07-30T07:05:32;22.60;72.30
81337;DHT22;70799;48.000;10.584;2023-07-30T07:08:06;22.60;72.30
81337;DHT22;70799;48.000;10.584;2023-07-30T07:10:44;22.60;72.50
81337;DHT22;70799;48.000;10.584;2023-07-30T07:13:17;22.60;73.40
81337;DHT22;70799;48.000;10.584;2023-07-30T07:15:51;22.70;72.70
81337;DHT22;70799;48.000;10.584;2023-07-30T07:18:29;22.80;72.50
81337;DHT22;70799;48.000;10.584;2023-07-30T07:21:02;22.90;72.50
81337;DHT22;70799;48.000;10.584;2023-07-30T07:23:36;23.00;71.50
81337;DHT22;70799;48.000;10.584;2023-07-30T07:26:09;23.10;72.00
81337;DHT22;70799;48.000;10.584;2023-07-30T07:28:45;23.20;71.50
81337;DHT22;70799;48.000;10.584;2023-07-30T07:31:24;23.30;72.00
81337;DHT22;70799;48.000;10.584;2023-07-30T07:34:33;23.30;70.40
81337;DHT22;70799;48.000;10.584;2023-07-30T07:37:07;23.60;71.10
81337;DHT22;70799;48.000;10.584;2023-07-30T07:39:42;23.80;69.10
81337;DHT22;70799;48.000;10.584;2023-07-30T07:42:17;24.20;66.30
81337;DHT22;70799;48.000;10.584;2023-07-30T07:44:55;24.60;67.80
81337;DHT22;70799;48.000;10.584;2023-07-30T07:47:35;24.90;66.70
81337;DHT22;70799;48.000;10.584;2023-07-30T07:50:08;25.30;64.70
81337;DHT22;70799;48.000;10.584;2023-07-30T07:52:46;25.50;64.70
81337;DHT22;70799;48.000;10.584;2023-07-30T07:55:20;25.60;65.00
81337;DHT22;70799;48.000;10.584;2023-07-30T07:57:55;25.70;64.60
81337;DHT22;70799;48.000;10.584;2023-07-30T08:00:32;25.50;63.30
81337;DHT22;70799;48.000;10.584;2023-07-30T08:03:06;25.70;64.40
81337;DHT22;70799;48.000;10.584;2023-07-30T08:05:40;25.90;63.70
81337;DHT22;70799;48.000;10.584;2023-07-30T08:08:19;26.10;62.40
81337;DHT22;70799;48.000;10.584;2023-07-30T08:10:56;26.00;61.70
81337;DHT22;70799;48.000;10.584;2023-07-30T08:13:30;26.20;63.50
81337;DHT22;70799;48.000;10.584;2023-07-30T08:16:04;26.50;59.80
81337;DHT22;70799;48.000;10.584;2023-07-30T08:18:41;26.50;59.90
81337;DHT22;70799;48.000;10.584;2023-07-30T08:21:15;26.50;60.70
81337;DHT22;70799;48.000;10.584;2023-07-30T08:23:55;26.70;59.80
81337;DHT22;70799;48.000;10.584;2023-07-30T08:26:29;27.00;60.00
81337;DHT22;70799;48.000;10.584;2023-07-30T08:29:03;27.30;58.70
81337;DHT22;70799;48.000;10.584;2023-07-30T08:31:48;27.60;56.70
81337;DHT22;70799;48.000;10.584;2023-07-30T08:34:23;27.50;57.50
81337;DHT22;70799;48.000;10.584;2023-07-30T08:36:57;27.30;57.90
81337;DHT22;70799;48.000;10.584;2023-07-30T08:39:33;27.10;58.20
81337;DHT22;70799;48.000;10.584;2023-07-30T08:42:11;27.00;56.50
81337;DHT22;70799;48.000;10.584;2023-07-30T08:44:50;27.00;57.80
81337;DHT22;70799;48.000;10.584;2023-07-30T08:47:24;27.10;57.20
81337;DHT22;70799;48.000;10.584;2023-07-30T08:50:00;26.90;58.50
81337;DHT22;70799;48.000;10.584;2023-07-30T08:52:36;26.80;58.70
81337;DHT22;70799;48.000;10.584;2023-07-30T08:55:16;26.70;58.50
81337;DHT22;70799;48.000;10.584;2023-07-30T08:57:51;26.80;58.30
81337;DHT22;70799;48.000;10.584;2023-07-30T09:00:34;27.00;58.10
81337;DHT22;70799;48.000;10.584;2023-07-30T09:03:13;27.40;56.60
81337;DHT22;70799;48.000;10.584;2023-07-30T09:05:51;27.60;55.60
81337;DHT22;70799;48.000;10.584;2023-07-30T09:08:28;27.50;55.00
81337;DHT22;70799;48.000;10.584;2023-07-30T09:11:11;27.30;56.90
81337;DHT22;70799;48.000;10.584;2023-07-30T09:13:54;27.40;57.50
81337;DHT22;70799;48.000;10.584;2023-07-30T09:16:33;27.70;56.50
81337;DHT22;70799;48.000;10.584;2023-07-30T09:19:17;27.90;55.10
81337;DHT22;70799;48.000;10.584;2023-07-30T09:21:52;27.70;54.70
81337;DHT22;70799;48.000;10.584;2023-07-30T09:24:26;27.60;53.50
81337;DHT22;70799;48.000;10.584;2023-07-30T09:27:04;27.80;52.60
81337;DHT22;70799;48.000;10.584;2023-07-30T09:29:50;28.00;55.10
81337;DHT22;70799;48.000;10.584;2023-07-30T09:32:34;28.20;53.30
81337;DHT22;70799;48.000;10.584;2023-07-30T09:35:11;28.30;54.00
81337;DHT22;70799;48.000;10.584;2023-07-30T09:37:47;28.20;52.90
81337;DHT22;70799;48.000;10.584;2023-07-30T09:40:38;28.10;52.00
81337;DHT22;70799;48.000;10.584;2023-07-30T09:43:16;28.00;54.40
81337;DHT22;70799;48.000;10.584;2023-07-30T09:45:50;28.20;52.70
81337;DHT22;70799;48.000;10.584;2023-07-30T09:48:25;28.20;52.60
81337;DHT22;70799;48.000;10.584;2023-07-30T09:51:00;27.90;52.70
81337;DHT22;70799;48.000;10.584;2023-07-30T09:53:36;27.70;53.10
81337;DHT22;70799;48.000;10.584;2023-07-30T09:56:10;27.70;53.60
81337;DHT22;70799;48.000;10.584;2023-07-30T09:58:48;27.70;52.50
81337;DHT22;70799;48.000;10.584;2023-07-30T10:01:43;27.80;53.50
81337;DHT22;70799;48.000;10.584;2023-07-30T10:04:19;28.00;53.30
81337;DHT22;70799;48.000;10.584;2023-07-30T10:06:58;28.00;52.10
81337;DHT22;70799;48.000;10.584;2023-07-30T10:09:43;27.70;53.40
81337;DHT22;70799;48.000;10.584;2023-07-30T10:12:27;28.00;49.70
81337;DHT22;70799;48.000;10.584;2023-07-30T10:15:19;28.30;49.30
81337;DHT22;70799;48.000;10.584;2023-07-30T10:17:57;28.40;49.70
81337;DHT22;70799;48.000;10.584;2023-07-30T10:20:36;28.40;49.70
81337;DHT22;70799;48.000;10.584;2023-07-30T10:23:17;28.40;50.00
81337;DHT22;70799;48.000;10.584;2023-07-30T10:25:57;28.50;50.10
81337;DHT22;70799;48.000;10.584;2023-07-30T10:28:33;28.80;50.60
81337;DHT22;70799;48.000;10.584;2023-07-30T10:31:09;29.10;47.90
81337;DHT22;70799;48.000;10.584;2023-07-30T10:33:55;29.30;47.30
81337;DHT22;70799;48.000;10.584;2023-07-30T10:36:33;29.20;48.00
81337;DHT22;70799;48.000;10.584;2023-07-30T10:39:22;28.90;49.30
81337;DHT22;70799;48.000;10.584;2023-07-30T10:42:00;28.80;48.80
81337;DHT22;70799;48.000;10.584;2023-07-30T10:44:49;28.70;50.30
81337;DHT22;70799;48.000;10.584;2023-07-30T10:47:27;29.10;48.80
81337;DHT22;70799;48.000;10.584;2023-07-30T10:50:14;29.20;45.50
81337;DHT22;70799;48.000;10.584;2023-07-30T10:52:50;29.00;46.40
81337;DHT22;70799;48.000;10.584;2023-07-30T10:55:29;28.90;47.40
81337;DHT22;70799;48.000;10.584;2023-07-30T10:58:24;28.60;47.80
81337;DHT22;70799;48.000;10.584;2023-07-30T11:01:09;28.40;47.30
81337;DHT22;70799;48.000;10.584;2023-07-30T11:03:50;28.20;48.50
81337;DHT22;70799;48.000;10.584;2023-07-30T11:06:27;28.00;47.70
81337;DHT22;70799;48.000;10.584;2023-07-30T11:09:04;27.90;47.80
81337;DHT22;70799;48.000;10.584;2023-07-30T11:11:40;27.80;46.80
81337;DHT22;70799;48.000;10.584;2023-07-30T11:14:18;28.00;47.80
81337;DHT22;70799;48.000;10.584;2023-07-30T11:16:58;28.00;47.90
81337;DHT22;70799;48.000;10.584;2023-07-30T11:19:46;28.20;45.00
81337;DHT22;70799;48.000;10.584;2023-07-30T11:22:35;28.30;47.10
81337;DHT22;70799;48.000;10.584;2023-07-30T11:25:35;28.50;46.40
81337;DHT22;70799;48.000;10.584;2023-07-30T11:28:38;28.50;44.70
81337;DHT22;70799;48.000;10.584;2023-07-30T11:31:19;28.40;47.50
81337;DHT22;70799;48.000;10.584;2023-07-30T11:33:58;28.60;47.50
81337;DHT22;70799;48.000;10.584;2023-07-30T11:36:37;28.60;44.90
81337;DHT22;70799;48.000;10.584;2023-07-30T11:39:34;28.70;45.50
81337;DHT22;70799;48.000;10.584;2023-07-30T11:42:10;28.60;47.20
81337;DHT22;70799;48.000;10.584;2023-07-30T11:44:44;28.40;45.60
81337;DHT22;70799;48.000;10.584;2023-07-30T11:47:22;28.50;47.30
81337;DHT22;70799;48.000;10.584;2023-07-30T11:50:00;28.80;47.30
81337;DHT22;70799;48.000;10.584;2023-07-30T11:53:15;28.90;46.00
81337;DHT22;70799;48.000;10.584;2023-07-30T11:55:54;28.70;46.90
81337;DHT22;70799;48.000;10.584;2023-07-30T11:58:37;28.50;45.60
81337;DHT22;70799;48.000;10.584;2023-07-30T12:01:18;28.20;46.10
81337;DHT22;70799;48.000;10.584;2023-07-30T12:04:15;28.10;46.70
81337;DHT22;70799;48.000;10.584;2023-07-30T12:06:52;28.10;46.10
81337;DHT22;70799;48.000;10.584;2023-07-30T12:09:26;28.00;45.10
81337;DHT22;70799;48.000;10.584;2023-07-30T12:12:06;28.00;46.50
81337;DHT22;70799;48.000;10.584;2023-07-30T12:17:30;27.80;46.90
81337;DHT22;70799;48.000;10.584;2023-07-30T12:20:05;27.80;47.10
81337;DHT22;70799;48.000;10.584;2023-07-30T12:22:42;27.60;46.40
81337;DHT22;70799;48.000;10.584;2023-07-30T12:25:21;27.60;47.30
81337;DHT22;70799;48.000;10.584;2023-07-30T12:27:58;27.70;46.50
81337;DHT22;70799;48.000;10.584;2023-07-30T12:30:33;27.90;47.10
81337;DHT22;70799;48.000;10.584;2023-07-30T12:33:11;28.20;46.30
81337;DHT22;70799;48.000;10.584;2023-07-30T12:35:44;28.20;46.40
81337;DHT22;70799;48.000;10.584;2023-07-30T12:38:21;27.90;46.20
81337;DHT22;70799;48.000;10.584;2023-07-30T12:41:24;27.80;46.00
81337;DHT22;70799;48.000;10.584;2023-07-30T12:43:58;27.70;47.20
81337;DHT22;70799;48.000;10.584;2023-07-30T12:46:52;27.50;46.60
81337;DHT22;70799;48.000;10.584;2023-07-30T12:53:10;28.00;44.90
81337;DHT22;70799;48.000;10.584;2023-07-30T12:56:08;28.30;46.60
81337;DHT22;70799;48.000;10.584;2023-07-30T12:58:45;28.30;47.70
81337;DHT22;70799;48.000;10.584;2023-07-30T13:01:19;28.10;48.80
81337;DHT22;70799;48.000;10.584;2023-07-30T13:03:52;28.10;48.70
81337;DHT22;70799;48.000;10.584;2023-07-30T13:06:39;28.20;49.70
81337;DHT22;70799;48.000;10.584;2023-07-30T13:09:33;28.30;49.70
81337;DHT22;70799;48.000;10.584;2023-07-30T13:12:08;28.50;49.70
81337;DHT22;70799;48.000;10.584;2023-07-30T13:14:52;28.50;48.80
81337;DHT22;70799;48.000;10.584;2023-07-30T13:18:04;28.40;49.60
81337;DHT22;70799;48.000;10.584;2023-07-30T13:21:14;28.50;48.00
81337;DHT22;70799;48.000;10.584;2023-07-30T13:24:20;28.50;47.70
81337;DHT22;70799;48.000;10.584;2023-07-30T13:27:37;28.40;47.10
81337;DHT22;70799;48.000;10.584;2023-07-30T13:30:34;28.40;48.40
81337;DHT22;70799;48.000;10.584;2023-07-30T13:33:22;28.40;45.30
81337;DHT22;70799;48.000;10.584;2023-07-30T13:36:00;28.40;46.20
81337;DHT22;70799;48.000;10.584;2023-07-30T13:38:48;28.60;42.70
81337;DHT22;70799;48.000;10.584;2023-07-30T13:41:30;28.70;41.10
81337;DHT22;70799;48.000;10.584;2023-07-30T13:44:04;28.90;37.10
81337;DHT22;70799;48.000;10.584;2023-07-30T13:46:38;28.80;35.40
81337;DHT22;70799;48.000;10.584;2023-07-30T13:49:25;28.70;37.30
81337;DHT22;70799;48.000;10.584;2023-07-30T13:51:59;28.90;38.50
81337;DHT22;70799;48.000;10.584;2023-07-30T13:54:45;29.00;34.80
81337;DHT22;70799;48.000;10.584;2023-07-30T13:57:28;29.00;35.40
81337;DHT22;70799;48.000;10.584;2023-07-30T14:00:07;29.10;35.80
81337;DHT22;70799;48.000;10.584;2023-07-30T14:02:40;29.30;34.50
81337;DHT22;70799;48.000;10.584;2023-07-30T14:05:15;29.50;35.70
81337;DHT22;70799;48.000;10.584;2023-07-30T14:07:50;29.60;33.80
81337;DHT22;70799;48.000;10.584;2023-07-30T14:10:26;29.80;35.00
81337;DHT22;70799;48.000;10.584;2023-07-30T14:12:59;29.90;32.80
81337;DHT22;70799;48.000;10.584;2023-07-30T14:15:36;29.70;32.90
81337;DHT22;70799;48.000;10.584;2023-07-30T14:18:10;29.70;33.80
81337;DHT22;70799;48.000;10.584;2023-07-30T14:20:59;29.70;34.80
81337;DHT22;70799;48.000;10.584;2023-07-30T14:23:34;29.60;34.00
81337;DHT22;70799;48.000;10.584;2023-07-30T14:26:16;29.40;34.10
81337;DHT22;70799;48.000;10.584;2023-07-30T14:28:49;29.10;35.70
81337;DHT22;70799;48.000;10.584;2023-07-30T14:31:22;28.60;34.70
81337;DHT22;70799;48.000;10.584;2023-07-30T14:33:55;28.20;36.20
81337;DHT22;70799;48.000;10.584;2023-07-30T14:36:31;27.80;37.00
81337;DHT22;70799;48.000;10.584;2023-07-30T14:39:06;27.80;37.20
81337;DHT22;70799;48.000;10.584;2023-07-30T14:41:47;27.80;36.90
81337;DHT22;70799;48.000;10.584;2023-07-30T14:44:34;27.60;36.40
81337;DHT22;70799;48.000;10.584;2023-07-30T14:47:07;27.30;36.30
81337;DHT22;70799;48.000;10.584;2023-07-30T14:49:47;27.10;37.30
81337;DHT22;70799;48.000;10.584;2023-07-30T14:52:34;27.10;37.50
81337;DHT22;70799;48.000;10.584;2023-07-30T14:55:10;27.10;38.70
81337;DHT22;70799;48.000;10.584;2023-07-30T14:58:03;27.10;39.20
81337;DHT22;70799;48.000;10.584;2023-07-30T15:00:40;27.30;39.00
81337;DHT22;70799;48.000;10.584;2023-07-30T15:03:49;27.10;37.80
81337;DHT22;70799;48.000;10.584;2023-07-30T15:06:39;27.10;39.50
81337;DHT22;70799;48.000;10.584;2023-07-30T15:09:16;27.20;39.40
81337;DHT22;70799;48.000;10.584;2023-07-30T15:11:53;27.30;39.30
81337;DHT22;70799;48.000;10.584;2023-07-30T15:14:28;27.30;39.40
81337;DHT22;70799;48.000;10.584;2023-07-30T15:17:07;27.40;39.60
81337;DHT22;70799;48.000;10.584;2023-07-30T15:20:04;27.40;37.30
81337;DHT22;70799;48.000;10.584;2023-07-30T15:22:37;27.30;38.70
81337;DHT22;70799;48.000;10.584;2023-07-30T15:25:11;27.40;38.50
81337;DHT22;70799;48.000;10.584;2023-07-30T15:27:44;27.40;36.90
81337;DHT22;70799;48.000;10.584;2023-07-30T15:30:18;27.30;36.50
81337;DHT22;70799;48.000;10.584;2023-07-30T15:32:52;27.20;37.80
81337;DHT22;70799;48.000;10.584;2023-07-30T15:35:28;27.10;38.00
81337;DHT22;70799;48.000;10.584;2023-07-30T15:38:04;27.20;38.90
81337;DHT22;70799;48.000;10.584;2023-07-30T15:40:38;27.30;36.30
81337;DHT22;70799;48.000;10.584;2023-07-30T15:43:11;27.10;35.80
81337;DHT22;70799;48.000;10.584;2023-07-30T15:45:46;26.90;35.70
81337;DHT22;70799;48.000;10.584;2023-07-30T15:48:23;26.70;35.30
81337;DHT22;70799;48.000;10.584;2023-07-30T15:51:00;26.40;36.00
81337;DHT22;70799;48.000;10.584;2023-07-30T15:53:33;26.30;36.60
81337;DHT22;70799;48.000;10.584;2023-07-30T15:56:16;26.30;35.60
81337;DHT22;70799;48.000;10.584;2023-07-30T15:58:49;26.50;36.40
81337;DHT22;70799;48.000;10.584;2023-07-30T16:01:23;26.60;37.10
81337;DHT22;70799;48.000;10.584;2023-07-30T16:03:56;26.80;36.20
81337;DHT22;70799;48.000;10.584;2023-07-30T16:06:31;26.80;36.10
81337;DHT22;70799;48.000;10.584;2023-07-30T16:09:08;26.80;36.70
81337;DHT22;70799;48.000;10.584;2023-07-30T16:11:41;26.90;36.90
81337;DHT22;70799;48.000;10.584;2023-07-30T16:14:18;26.80;36.50
81337;DHT22;70799;48.000;10.584;2023-07-30T16:16:52;26.90;36.00
81337;DHT22;70799;48.000;10.584;2023-07-30T16:19:25;26.90;36.30
81337;DHT22;70799;48.000;10.584;2023-07-30T16:21:58;26.80;36.10
81337;DHT22;70799;48.000;10.584;2023-07-30T16:24:33;26.80;36.90
81337;DHT22;70799;48.000;10.584;2023-07-30T16:27:06;26.90;36.40
81337;DHT22;70799;48.000;10.584;2023-07-30T16:29:48;26.80;36.20